Time;durP1;ratioP1;P1;durP2;ratioP2;P2;SDS_P1;SDS_P2;PMS_P1;PMS_P2;Temp;Humidity;BMP_temperature;BMP_pressure;BME280_temperature;BME280_humidity;BME280_pressure;Samples;Min_cycle;Max_cycle;Signal;HPM_P1;HPM_P2
2022/03/30 00:01:33;;;;;;;17.73;12.97;;;;;;;10.10;75.28;96930.31;5053443;28;20246;-64
2022/03/30 00:03:59;;;;;;;20.13;14.07;;;;;;;10.26;75.60;96941.19;5056209;28;20224;-65
2022/03/30 00:06:26;;;;;;;16.63;13.33;;;;;;;10.37;75.42;96935.81;5056023;28;20704;-65
2022/03/30 00:08:52;;;;;;;19.57;14.03;;;;;;;10.49;75.70;96935.59;5056720;28;20216;-65
2022/03/30 00:11:19;;;;;;;19.30;13.23;;;;;;;10.63;75.93;96942.31;5055197;28;20231;-65
2022/03/30 00:13:45;;;;;;;19.37;14.07;;;;;;;10.73;76.04;96940.53;5056212;28;20218;-66
2022/03/30 00:16:13;;;;;;;19.37;14.30;;;;;;;10.81;75.83;96936.22;5056343;28;20224;-65
2022/03/30 00:18:40;;;;;;;25.47;14.73;;;;;;;10.89;75.90;96932.91;5056449;28;20244;-65
2022/03/30 00:21:06;;;;;;;18.67;14.23;;;;;;;10.96;75.36;96929.56;5056890;28;20582;-65
2022/03/30 00:23:33;;;;;;;17.47;13.37;;;;;;;11.02;75.07;96928.19;5044273;28;20225;-65
2022/03/30 00:26:00;;;;;;;20.30;13.77;;;;;;;11.06;75.04;96927.78;5055895;28;20218;-65
2022/03/30 00:28:28;;;;;;;23.07;14.63;;;;;;;11.10;74.84;96926.53;5055954;28;20301;-64
2022/03/30 00:30:55;;;;;;;20.60;14.13;;;;;;;11.16;74.65;96930.44;5054842;28;20588;-65
2022/03/30 00:33:22;;;;;;;18.03;13.70;;;;;;;11.17;74.59;96932.94;5056090;28;20275;-64
2022/03/30 00:35:49;;;;;;;22.97;14.20;;;;;;;11.17;74.39;96927.66;5055619;28;20220;-65
2022/03/30 00:38:15;;;;;;;19.13;14.67;;;;;;;11.16;73.98;96936.56;5054095;28;20253;-65
2022/03/30 00:40:42;;;;;;;20.20;13.73;;;;;;;11.19;73.55;96925.69;5056620;28;20254;-65
2022/03/30 00:43:08;;;;;;;20.37;14.30;;;;;;;11.17;73.51;96924.16;5055641;28;20220;-65
2022/03/30 00:45:35;;;;;;;21.00;14.43;;;;;;;11.20;73.24;96926.53;5055605;28;20212;-66
2022/03/30 00:48:02;;;;;;;19.40;14.57;;;;;;;11.22;73.32;96914.84;5055502;28;20220;-65
2022/03/30 00:50:30;;;;;;;21.13;14.97;;;;;;;11.21;73.51;96922.91;5055607;28;20845;-65
2022/03/30 00:52:57;;;;;;;21.27;15.87;;;;;;;11.17;73.49;96922.38;5055396;28;20628;-65
2022/03/30 00:55:24;;;;;;;22.27;14.33;;;;;;;11.22;73.11;96928.09;5055175;28;20208;-64
2022/03/30 00:57:52;;;;;;;21.07;15.57;;;;;;;11.24;73.44;96928.75;5055222;28;20224;-65
2022/03/30 01:00:19;;;;;;;21.70;14.80;;;;;;;11.23;73.45;96927.09;5055176;28;20246;-65
2022/03/30 01:02:47;;;;;;;20.40;14.20;;;;;;;11.27;73.27;96932.94;5053134;28;20268;-65
2022/03/30 01:05:15;;;;;;;23.60;15.30;;;;;;;11.22;73.44;96933.38;5055341;28;20220;-65
2022/03/30 01:07:43;;;;;;;22.70;15.50;;;;;;;11.23;73.66;96929.75;5054755;28;20747;-65
2022/03/30 01:10:12;;;;;;;20.43;15.00;;;;;;;11.22;73.64;96924.59;5056408;28;20283;-64
2022/03/30 01:12:39;;;;;;;23.57;16.00;;;;;;;11.23;73.74;96926.25;5054703;28;20218;-66
2022/03/30 01:15:07;;;;;;;21.00;15.53;;;;;;;11.20;74.29;96922.06;5054836;28;20632;-66
2022/03/30 01:17:34;;;;;;;22.63;15.40;;;;;;;11.16;74.59;96920.69;5055003;28;20213;-65
2022/03/30 01:20:00;;;;;;;23.93;16.27;;;;;;;11.13;75.60;96914.84;5056117;28;20216;-65
2022/03/30 01:22:28;;;;;;;20.53;14.67;;;;;;;11.09;76.23;96908.16;5054743;28;20589;-65
2022/03/30 01:24:55;;;;;;;20.87;15.33;;;;;;;11.09;75.95;96898.44;5054771;28;20212;-65
2022/03/30 01:27:21;;;;;;;23.87;16.50;;;;;;;11.07;75.90;96899.53;5054526;28;20745;-65
2022/03/30 01:32:34;;;;;;;22.63;16.33;;;;;;;11.16;75.52;96886.31;5044018;28;20316;-65
2022/03/30 01:35:03;;;;;;;21.27;15.37;;;;;;;11.18;75.59;96880.91;5054875;28;20222;-65
2022/03/30 01:37:32;;;;;;;21.80;15.87;;;;;;;11.20;76.31;96884.22;5055993;28;20212;-65
2022/03/30 01:40:01;;;;;;;21.83;15.50;;;;;;;11.21;76.27;96880.59;5054146;28;20212;-64
2022/03/30 01:42:28;;;;;;;21.97;15.10;;;;;;;11.23;75.59;96879.50;5054549;28;20219;-64
2022/03/30 01:44:55;;;;;;;21.77;15.20;;;;;;;11.25;75.25;96879.38;5054442;28;20220;-65
2022/03/30 01:47:22;;;;;;;20.77;15.57;;;;;;;11.25;74.67;96882.81;5055678;28;20209;-64
2022/03/30 01:49:49;;;;;;;21.23;16.13;;;;;;;11.25;75.77;96879.38;5054359;28;20218;-65
2022/03/30 01:52:16;;;;;;;24.23;16.40;;;;;;;11.22;75.46;96883.13;5054378;28;20216;-65
2022/03/30 01:54:45;;;;;;;24.37;15.83;;;;;;;11.11;76.15;96880.63;5054185;28;20740;-64
2022/03/30 01:57:13;;;;;;;23.37;16.07;;;;;;;11.10;76.42;96880.75;5053890;28;20694;-65
2022/03/30 01:59:40;;;;;;;24.87;16.43;;;;;;;11.06;77.48;96884.66;5054254;28;20215;-64
2022/03/30 02:02:07;;;;;;;25.23;16.40;;;;;;;10.99;79.58;96875.59;5053725;28;20718;-64
2022/03/30 02:04:36;;;;;;;24.67;17.27;;;;;;;10.91;82.62;96864.88;5054119;28;20266;-67
2022/03/30 02:07:03;;;;;;;25.93;17.30;;;;;;;10.79;86.23;96869.47;5055875;28;20217;-66
2022/03/30 02:09:29;;;;;;;25.03;18.17;;;;;;;10.60;90.02;96864.19;5054196;28;20210;-64
2022/03/30 02:11:57;;;;;;;24.67;17.67;;;;;;;10.51;91.02;96853.59;5054281;28;20212;-64
2022/03/30 02:14:24;;;;;;;24.43;17.87;;;;;;;10.46;92.08;96845.25;5054379;28;20236;-65
2022/03/30 02:16:50;;;;;;;25.13;17.70;;;;;;;10.42;92.85;96839.41;5055581;28;20220;-65
2022/03/30 02:19:17;;;;;;;25.10;17.10;;;;;;;10.33;92.00;96834.91;5054164;28;20225;-65
2022/03/30 02:21:43;;;;;;;21.83;17.10;;;;;;;10.29;92.61;96833.50;5051990;28;21069;-64
2022/03/30 02:24:10;;;;;;;24.63;17.23;;;;;;;10.27;93.73;96824.88;5054048;28;20278;-65
2022/03/30 02:26:36;;;;;;;26.50;17.50;;;;;;;10.23;94.54;96820.03;5055311;28;20218;-64
2022/03/30 02:29:04;;;;;;;24.73;17.80;;;;;;;10.16;94.56;96817.06;5054133;28;20208;-66
2022/03/30 02:31:31;;;;;;;24.63;17.60;;;;;;;10.13;92.56;96806.81;5054034;28;20228;-66
2022/03/30 02:33:57;;;;;;;26.63;18.03;;;;;;;10.10;91.73;96804.41;5053775;28;20821;-65
2022/03/30 02:36:24;;;;;;;25.70;18.27;;;;;;;10.10;92.54;96800.97;5054760;28;20213;-66
2022/03/30 02:38:50;;;;;;;26.33;17.50;;;;;;;10.09;94.02;96801.94;5054222;28;20576;-65
2022/03/30 02:41:17;;;;;;;23.70;17.43;;;;;;;10.06;95.42;96800.41;5053773;28;20255;-66
2022/03/30 02:43:43;;;;;;;23.73;16.70;;;;;;;10.14;93.43;96797.91;5053957;28;20216;-65
2022/03/30 02:46:11;;;;;;;24.37;17.27;;;;;;;10.15;93.05;96793.47;5054154;28;20210;-65
2022/03/30 02:48:38;;;;;;;24.00;17.33;;;;;;;10.15;93.61;96794.28;5053268;28;20222;-64
2022/03/30 02:51:06;;;;;;;22.13;17.07;;;;;;;10.15;94.10;96788.19;5054028;28;20613;-65
2022/03/30 02:53:34;;;;;;;25.00;18.00;;;;;;;10.19;93.67;96782.50;5053853;28;20233;-65
2022/03/30 02:56:00;;;;;;;26.57;18.47;;;;;;;10.22;94.21;96784.84;5053974;28;20221;-65
2022/03/30 02:58:27;;;;;;;24.97;17.40;;;;;;;10.35;93.51;96781.97;5054565;28;20228;-64
2022/03/30 03:00:54;;;;;;;29.53;18.83;;;;;;;10.41;94.06;96779.59;5053721;28;20285;-66
2022/03/30 03:03:23;;;;;;;25.63;18.20;;;;;;;10.47;94.71;96783.50;5053613;28;20252;-65
2022/03/30 03:05:50;;;;;;;31.13;18.60;;;;;;;10.44;94.26;96778.50;5054047;28;20219;-65
2022/03/30 03:08:17;;;;;;;23.77;17.37;;;;;;;10.48;92.86;96787.81;5054014;28;20212;-65
2022/03/30 03:10:50;;;;;;;24.57;17.77;;;;;;;10.42;91.74;96785.72;5053584;28;20598;-65
2022/03/30 03:13:17;;;;;;;23.23;17.23;;;;;;;10.34;91.89;96782.94;5054458;28;20221;-65
2022/03/30 03:15:45;;;;;;;22.50;16.37;;;;;;;10.32;92.46;96779.59;5056510;28;20628;-65
2022/03/30 03:18:12;;;;;;;23.47;16.77;;;;;;;10.31;93.58;96778.78;5057438;28;20216;-65
2022/03/30 03:20:43;;;;;;;26.33;17.83;;;;;;;10.32;93.66;96774.31;5057265;28;20213;-65
2022/03/30 03:23:11;;;;;;;24.83;18.00;;;;;;;10.36;93.70;96776.56;5056934;28;20212;-64
2022/03/30 03:25:39;;;;;;;25.23;17.40;;;;;;;10.40;93.36;96779.75;5058465;28;20220;-65
2022/03/30 03:28:07;;;;;;;21.57;16.57;;;;;;;10.43;93.83;96774.19;5057194;28;20630;-65
2022/03/30 03:30:33;;;;;;;24.07;16.50;;;;;;;10.42;93.97;96775.16;5057296;28;20220;-64
2022/03/30 03:33:01;;;;;;;23.07;17.20;;;;;;;10.39;93.75;96762.25;5056654;28;20227;-64
2022/03/30 03:35:29;;;;;;;23.27;17.17;;;;;;;10.37;93.24;96772.94;5057898;28;20216;-65
2022/03/30 03:37:57;;;;;;;23.60;16.77;;;;;;;10.36;92.80;96778.34;5056826;28;20604;-64
2022/03/30 03:40:24;;;;;;;24.37;17.70;;;;;;;10.34;92.67;96773.19;5055012;28;20419;-66
2022/03/30 03:42:50;;;;;;;26.30;17.73;;;;;;;10.35;92.46;96763.50;5056594;28;20722;-64
2022/03/30 03:45:18;;;;;;;26.93;17.20;;;;;;;10.33;91.66;96760.16;5057986;28;20586;-65
2022/03/30 03:47:46;;;;;;;24.43;17.10;;;;;;;10.33;91.38;96760.16;5053898;28;20244;-65
2022/03/30 03:50:12;;;;;;;22.10;16.17;;;;;;;10.31;91.82;96762.09;5056764;28;20218;-65
2022/03/30 03:52:39;;;;;;;22.23;16.67;;;;;;;10.31;92.76;96757.66;5056668;28;20223;-66
2022/03/30 03:55:08;;;;;;;24.20;17.00;;;;;;;10.27;92.96;96750.97;5057710;28;20219;-66
2022/03/30 03:57:37;;;;;;;24.53;17.37;;;;;;;10.24;92.42;96751.25;5053582;28;20709;-66
2022/03/30 04:00:06;;;;;;;23.27;16.37;;;;;;;10.21;92.46;96751.50;5056425;28;20224;-66
2022/03/30 04:02:32;;;;;;;24.40;17.13;;;;;;;10.19;92.68;96757.91;5056359;28;20250;-64
2022/03/30 04:04:59;;;;;;;22.13;16.60;;;;;;;10.17;93.35;96760.69;5057330;28;20216;-65
2022/03/30 04:07:25;;;;;;;22.30;17.40;;;;;;;10.19;93.69;96757.91;5054760;28;20210;-64
2022/03/30 04:09:52;;;;;;;23.93;17.33;;;;;;;10.21;93.91;96761.25;5055973;28;20227;-64
2022/03/30 04:12:20;;;;;;;27.73;18.03;;;;;;;10.24;93.02;96759.16;5056246;28;20221;-65
2022/03/30 04:14:46;;;;;;;24.13;17.13;;;;;;;10.27;93.00;96766.00;5057361;28;20220;-65
2022/03/30 04:17:12;;;;;;;23.27;17.37;;;;;;;10.27;93.31;96758.06;5056214;28;20210;-65
2022/03/30 04:19:39;;;;;;;26.13;18.23;;;;;;;10.19;94.07;96757.91;5056225;28;20217;-65
2022/03/30 04:22:06;;;;;;;26.60;18.73;;;;;;;10.11;95.51;96752.47;5056009;28;20248;-65
2022/03/30 04:24:32;;;;;;;26.90;18.13;;;;;;;10.06;95.96;96754.69;5056666;28;20276;-66
2022/03/30 04:26:59;;;;;;;27.07;18.90;;;;;;;9.99;96.90;96757.00;5056076;28;20212;-65
2022/03/30 04:29:27;;;;;;;27.40;19.70;;;;;;;9.95;97.90;96755.59;5055598;28;20695;-66
2022/03/30 04:31:53;;;;;;;29.40;19.63;;;;;;;9.93;98.38;96748.78;5055743;28;20217;-64
2022/03/30 04:34:20;;;;;;;26.23;19.00;;;;;;;9.84;98.61;96746.97;5054581;28;20215;-64
2022/03/30 04:36:46;;;;;;;24.07;18.30;;;;;;;9.74;99.50;96740.81;5056671;28;20220;-64
2022/03/30 04:39:13;;;;;;;28.17;19.73;;;;;;;9.64;100.00;96755.78;5043513;28;20224;-64
2022/03/30 04:41:39;;;;;;;33.53;20.50;;;;;;;9.59;100.00;96753.56;5055606;28;20241;-64
2022/03/30 04:44:06;;;;;;;29.63;20.90;;;;;;;9.61;100.00;96756.06;5055636;28;20222;-65
2022/03/30 04:46:34;;;;;;;30.67;21.40;;;;;;;9.58;100.00;96751.03;5053979;28;20676;-64
2022/03/30 04:49:00;;;;;;;28.57;20.57;;;;;;;9.55;100.00;96756.59;5055557;28;20223;-65
2022/03/30 04:51:29;;;;;;;30.00;20.83;;;;;;;9.53;100.00;96753.22;5055627;28;20223;-65
2022/03/30 04:53:56;;;;;;;30.27;21.60;;;;;;;9.52;100.00;96759.47;5055212;28;20221;-64
2022/03/30 04:56:22;;;;;;;30.53;20.23;;;;;;;9.48;100.00;96758.09;5053814;28;20215;-64
2022/03/30 04:58:50;;;;;;;29.03;19.10;;;;;;;9.44;100.00;96751.41;5053738;28;20220;-63
2022/03/30 05:01:16;;;;;;;31.83;20.40;;;;;;;9.43;100.00;96757.66;5054816;28;20584;-64
2022/03/30 05:03:44;;;;;;;30.03;20.43;;;;;;;9.37;100.00;96758.19;5055385;28;20220;-63
2022/03/30 05:06:11;;;;;;;30.43;20.03;;;;;;;9.35;100.00;96762.72;5056606;28;20212;-64
2022/03/30 05:08:37;;;;;;;27.13;18.87;;;;;;;9.31;100.00;96761.34;5054904;28;20245;-64
2022/03/30 05:11:04;;;;;;;29.00;18.57;;;;;;;9.24;100.00;96762.84;5055120;28;20579;-64
2022/03/30 05:13:30;;;;;;;25.47;17.07;;;;;;;9.15;100.00;96761.81;5054944;28;20208;-64
2022/03/30 05:15:57;;;;;;;29.13;17.60;;;;;;;9.12;100.00;96766.53;5056301;28;20211;-64
2022/03/30 05:18:23;;;;;;;24.33;17.23;;;;;;;9.06;100.00;96762.59;5054847;28;20212;-64
2022/03/30 05:20:53;;;;;;;26.63;15.83;;;;;;;9.03;100.00;96757.59;5054747;28;20209;-64
2022/03/30 05:23:19;;;;;;;25.60;14.80;;;;;;;9.03;100.00;96759.38;5054796;28;20247;-64
2022/03/30 05:25:46;;;;;;;26.40;13.87;;;;;;;8.98;100.00;96757.13;5054488;28;20222;-63
2022/03/30 05:28:12;;;;;;;21.70;12.37;;;;;;;9.03;100.00;96748.84;5054755;28;20220;-64
2022/03/30 05:30:38;;;;;;;28.03;15.63;;;;;;;9.03;100.00;96754.09;5054832;28;20215;-63
2022/03/30 05:33:05;;;;;;;23.20;13.57;;;;;;;9.06;100.00;96759.13;5054894;28;20212;-65
2022/03/30 05:35:32;;;;;;;20.77;12.87;;;;;;;9.12;100.00;96763.88;5055801;28;20731;-63
2022/03/30 05:38:00;;;;;;;19.57;13.20;;;;;;;9.15;100.00;96760.97;5054699;28;20223;-63
2022/03/30 05:40:27;;;;;;;21.60;13.13;;;;;;;9.18;100.00;96758.09;5054787;28;20223;-63
2022/03/30 05:42:53;;;;;;;22.93;12.30;;;;;;;9.20;100.00;96762.25;5054671;28;20254;-62
2022/03/30 05:45:20;;;;;;;27.73;13.87;;;;;;;9.18;100.00;96758.09;5055794;28;20219;-62
2022/03/30 05:47:46;;;;;;;29.80;13.13;;;;;;;9.17;100.00;96751.16;5054533;28;20211;-62
2022/03/30 05:50:13;;;;;;;25.07;13.30;;;;;;;9.17;100.00;96753.78;5054573;28;20220;-62
2022/03/30 05:52:39;;;;;;;19.57;13.07;;;;;;;9.14;100.00;96754.03;5052618;28;20689;-62
2022/03/30 05:55:09;;;;;;;23.27;12.97;;;;;;;9.14;100.00;96751.41;5055777;28;20208;-62
2022/03/30 05:57:36;;;;;;;24.17;14.23;;;;;;;9.08;100.00;96752.75;5054708;28;20224;-62
2022/03/30 06:00:05;;;;;;;22.80;14.07;;;;;;;9.14;100.00;96761.94;5054464;28;20215;-63
2022/03/30 06:02:32;;;;;;;19.53;13.43;;;;;;;9.16;100.00;96749.47;5054115;28;20248;-64
2022/03/30 06:04:58;;;;;;;22.57;14.33;;;;;;;9.21;100.00;96747.28;5055551;28;20645;-64
2022/03/30 06:07:25;;;;;;;25.17;15.07;;;;;;;9.17;100.00;96751.97;5054057;28;20224;-63
2022/03/30 06:09:51;;;;;;;26.30;15.57;;;;;;;9.11;100.00;96746.41;5054353;28;20216;-63
2022/03/30 06:12:19;;;;;;;24.83;14.97;;;;;;;9.08;100.00;96751.91;5054203;28;20231;-62
2022/03/30 06:14:46;;;;;;;21.70;14.63;;;;;;;9.08;100.00;96747.50;5055703;28;20212;-63
2022/03/30 06:17:13;;;;;;;22.13;15.03;;;;;;;9.13;100.00;96744.47;5051412;28;20224;-62
2022/03/30 06:19:40;;;;;;;23.40;14.67;;;;;;;9.15;100.00;96742.53;5052582;28;20224;-63
2022/03/30 06:22:09;;;;;;;26.43;15.27;;;;;;;9.13;100.00;96737.38;5053957;28;20231;-63
2022/03/30 06:24:36;;;;;;;24.23;15.47;;;;;;;9.18;100.00;96737.00;5055471;28;20219;-64
2022/03/30 06:27:04;;;;;;;28.13;15.60;;;;;;;9.20;100.00;96732.44;5050803;28;20246;-64
2022/03/30 06:29:32;;;;;;;23.87;16.43;;;;;;;9.12;100.00;96732.25;5053288;28;20208;-64
2022/03/30 06:31:59;;;;;;;25.73;16.93;;;;;;;9.10;100.00;96739.44;5052474;28;20736;-64
2022/03/30 06:34:25;;;;;;;29.40;17.43;;;;;;;9.03;100.00;96733.03;5053950;28;20235;-64
2022/03/30 06:36:53;;;;;;;31.00;18.83;;;;;;;9.04;100.00;96739.97;5050071;28;20223;-63
2022/03/30 06:39:19;;;;;;;29.57;19.43;;;;;;;9.01;100.00;96734.97;5052689;28;20219;-64
2022/03/30 06:41:46;;;;;;;31.73;20.60;;;;;;;9.02;100.00;96731.34;5052651;28;20213;-63
2022/03/30 06:44:12;;;;;;;26.83;19.67;;;;;;;9.02;100.00;96731.34;5051853;28;20266;-63
2022/03/30 06:46:40;;;;;;;37.20;24.37;;;;;;;9.05;100.00;96731.94;5052563;28;20216;-64
2022/03/30 06:49:07;;;;;;;34.00;22.80;;;;;;;9.06;100.00;96727.50;5054701;28;20227;-63
2022/03/30 06:51:34;;;;;;;40.00;26.43;;;;;;;9.04;100.00;96726.78;5056060;28;20231;-63
2022/03/30 06:54:01;;;;;;;42.50;25.93;;;;;;;9.03;100.00;96728.59;5056716;28;20693;-63
2022/03/30 06:56:28;;;;;;;38.97;24.57;;;;;;;9.01;100.00;96719.97;5056421;28;20220;-63
2022/03/30 06:58:54;;;;;;;35.23;24.07;;;;;;;9.04;100.00;96713.59;5056525;28;20586;-63
2022/03/30 07:01:21;;;;;;;32.23;21.90;;;;;;;9.02;100.00;96707.63;5056009;28;20763;-63
2022/03/30 07:03:50;;;;;;;34.90;22.93;;;;;;;9.01;100.00;96713.88;5056166;28;20242;-63
2022/03/30 07:06:17;;;;;;;31.67;21.33;;;;;;;9.00;100.00;96707.75;5056649;28;20220;-63
2022/03/30 07:11:27;;;;;;;31.73;20.93;;;;;;;8.99;100.00;96705.28;5054497;28;20739;-63
2022/03/30 07:13:57;;;;;;;28.97;20.70;;;;;;;9.02;100.00;96700.59;5057229;28;20212;-63
2022/03/30 07:16:23;;;;;;;33.80;20.93;;;;;;;9.07;100.00;96708.09;5049945;28;20578;-63
2022/03/30 07:18:53;;;;;;;33.03;20.53;;;;;;;9.10;100.00;96702.53;5054102;28;20212;-65
2022/03/30 07:21:20;;;;;;;30.90;20.27;;;;;;;9.13;100.00;96699.66;5064465;28;20265;-64
2022/03/30 07:23:46;;;;;;;31.00;20.23;;;;;;;9.17;100.00;96703.72;5072521;28;20241;-64
2022/03/30 07:26:13;;;;;;;34.33;21.93;;;;;;;9.20;100.00;96698.16;5072532;28;20207;-63
2022/03/30 07:28:39;;;;;;;35.07;21.90;;;;;;;9.20;100.00;96698.16;5060063;28;20213;-64
2022/03/30 07:31:06;;;;;;;32.40;20.53;;;;;;;9.22;100.00;96690.94;5037319;28;20213;-63
2022/03/30 07:33:33;;;;;;;31.30;19.83;;;;;;;9.20;100.00;96692.88;5054111;28;20220;-65
2022/03/30 07:36:01;;;;;;;32.33;20.17;;;;;;;9.19;100.00;96701.78;5053904;28;20216;-64
2022/03/30 07:38:28;;;;;;;37.80;22.07;;;;;;;9.24;100.00;96691.66;5052782;28;20245;-64
2022/03/30 07:40:55;;;;;;;33.63;21.43;;;;;;;9.28;100.00;96706.22;5054507;28;20216;-64
2022/03/30 07:43:22;;;;;;;34.27;22.57;;;;;;;9.32;100.00;96702.38;5054803;28;20240;-63
2022/03/30 07:45:49;;;;;;;40.70;23.67;;;;;;;9.35;100.00;96692.41;5054748;28;20222;-63
2022/03/30 07:48:15;;;;;;;34.20;22.73;;;;;;;9.40;100.00;96684.94;5053900;28;20213;-63
2022/03/30 07:50:42;;;;;;;39.63;23.10;;;;;;;9.41;100.00;96685.75;5053649;28;20212;-63
2022/03/30 07:53:10;;;;;;;40.27;26.07;;;;;;;9.46;100.00;96691.44;5052053;28;20224;-63
2022/03/30 07:55:38;;;;;;;38.70;25.60;;;;;;;9.52;100.00;96688.28;5051283;28;20590;-63
2022/03/30 07:58:05;;;;;;;38.67;25.67;;;;;;;9.59;100.00;96689.41;5058844;28;20208;-63
2022/03/30 08:00:32;;;;;;;42.93;29.03;;;;;;;9.66;100.00;96682.66;5057992;28;20204;-63
2022/03/30 08:03:00;;;;;;;50.80;31.70;;;;;;;9.68;100.00;96683.34;5064641;28;20251;-63
2022/03/30 08:05:26;;;;;;;66.00;37.50;;;;;;;9.67;100.00;96686.94;5064898;28;20268;-64
2022/03/30 08:07:53;;;;;;;80.47;43.83;;;;;;;9.72;100.00;96685.56;5066932;28;20268;-64
2022/03/30 08:10:21;;;;;;;73.47;44.13;;;;;;;9.79;100.00;96689.31;5064001;28;20227;-63
2022/03/30 08:12:48;;;;;;;89.80;46.57;;;;;;;9.89;100.00;96692.81;5064353;28;20224;-63
2022/03/30 08:15:14;;;;;;;74.63;42.50;;;;;;;9.99;100.00;96682.28;5066738;28;20223;-64
2022/03/30 08:17:43;;;;;;;152.33;72.83;;;;;;;10.07;100.00;96685.06;5067355;28;20226;-63
2022/03/30 08:20:12;;;;;;;147.77;71.27;;;;;;;10.15;100.00;96682.59;5062780;28;20220;-66
2022/03/30 08:22:37;;;;;;;93.40;47.33;;;;;;;10.25;100.00;96686.06;5065672;28;20235;-64
2022/03/30 08:25:07;;;;;;;88.33;45.50;;;;;;;10.41;100.00;96689.00;5067403;28;20809;-64
2022/03/30 08:27:36;;;;;;;92.23;48.63;;;;;;;10.57;100.00;96683.94;5067521;28;20273;-64
2022/03/30 08:30:04;;;;;;;64.10;35.53;;;;;;;10.75;100.00;96687.53;5063923;28;20206;-64
2022/03/30 08:32:31;;;;;;;66.97;36.90;;;;;;;10.89;100.00;96689.75;5064326;28;20271;-63
2022/03/30 08:34:57;;;;;;;64.50;34.43;;;;;;;10.99;100.00;96690.53;5067561;28;20219;-64
2022/03/30 08:37:24;;;;;;;53.57;34.50;;;;;;;11.06;100.00;96691.66;5067230;28;20212;-64
2022/03/30 08:39:53;;;;;;;71.77;41.17;;;;;;;11.06;100.00;96691.66;5064123;28;20235;-64
2022/03/30 08:42:20;;;;;;;75.63;43.33;;;;;;;11.02;100.00;96695.56;5065174;28;20868;-64
2022/03/30 08:44:49;;;;;;;69.40;38.87;;;;;;;10.97;100.00;96695.16;5067342;28;20216;-64
2022/03/30 08:47:16;;;;;;;98.80;51.23;;;;;;;10.88;100.00;96698.66;5067086;28;20256;-63
2022/03/30 08:49:45;;;;;;;108.50;53.47;;;;;;;10.84;100.00;96694.63;5056930;28;20219;-64
2022/03/30 08:52:12;;;;;;;115.93;55.47;;;;;;;10.80;100.00;96695.88;5065236;28;20231;-64
2022/03/30 08:54:43;;;;;;;105.73;53.27;;;;;;;10.79;100.00;96694.22;5066777;28;20701;-64
2022/03/30 08:57:10;;;;;;;96.20;50.13;;;;;;;10.79;100.00;96694.22;5066844;28;20250;-64
2022/03/30 08:59:37;;;;;;;84.90;43.07;;;;;;;10.88;100.00;96688.09;5061698;28;20212;-64
2022/03/30 09:02:05;;;;;;;67.83;35.73;;;;;;;10.96;100.00;96690.84;5065514;28;20251;-64
2022/03/30 09:04:31;;;;;;;55.47;32.23;;;;;;;11.06;100.00;96681.09;5066817;28;20350;-65
2022/03/30 09:06:59;;;;;;;54.50;30.97;;;;;;;11.13;100.00;96677.69;5066878;28;20213;-65
2022/03/30 09:09:31;;;;;;;52.10;31.03;;;;;;;11.22;100.00;96681.28;5057781;28;20216;-65
2022/03/30 09:11:59;;;;;;;47.03;28.10;;;;;;;11.34;100.00;96685.44;5065280;28;20242;-65
2022/03/30 09:14:28;;;;;;;33.63;20.30;;;;;;;11.32;100.00;96676.81;5066864;28;20219;-64
2022/03/30 09:16:57;;;;;;;30.33;18.23;;;;;;;11.28;100.00;96681.56;5065663;28;20678;-64
2022/03/30 09:19:26;;;;;;;30.33;18.43;;;;;;;11.29;100.00;96677.94;5062944;28;20580;-64
2022/03/30 09:21:54;;;;;;;26.47;18.67;;;;;;;11.27;100.00;96677.25;5048745;28;20215;-64
2022/03/30 09:24:23;;;;;;;28.97;17.63;;;;;;;11.31;100.00;96675.16;5066090;28;20843;-64
2022/03/30 09:26:52;;;;;;;26.33;16.97;;;;;;;11.36;100.00;96680.81;5063393;28;20219;-64
2022/03/30 09:29:20;;;;;;;26.73;16.37;;;;;;;11.41;100.00;96673.28;5062516;28;20224;-64
2022/03/30 09:31:48;;;;;;;29.73;16.40;;;;;;;11.42;100.00;96672.28;5066158;28;20262;-66
2022/03/30 09:34:15;;;;;;;22.03;15.83;;;;;;;11.36;100.00;96670.22;5066449;28;20212;-63
2022/03/30 09:36:44;;;;;;;25.43;16.07;;;;;;;11.33;100.00;96673.19;5064683;28;20290;-64
2022/03/30 09:39:28;;;;;;;24.33;16.23;;;;;;;11.35;100.00;96665.94;5062838;28;20215;-65
2022/03/30 09:41:56;;;;;;;21.47;15.80;;;;;;;11.35;100.00;96671.22;5066266;28;20226;-65
2022/03/30 09:44:23;;;;;;;26.20;16.33;;;;;;;11.28;100.00;96670.97;5065662;28;20728;-64
2022/03/30 09:46:54;;;;;;;26.37;16.47;;;;;;;11.26;100.00;96670.28;5062405;28;20597;-63
2022/03/30 09:49:33;;;;;;;24.10;15.77;;;;;;;11.22;100.00;96676.00;5058223;28;20278;-65
2022/03/30 09:52:01;;;;;;;24.80;15.87;;;;;;;11.20;100.00;96657.63;5047090;28;20212;-64
2022/03/30 09:54:38;;;;;;;24.27;15.30;;;;;;;11.14;100.00;96657.41;5059397;28;20220;-66
2022/03/30 09:57:10;;;;;;;22.17;15.00;;;;;;;11.08;100.00;96657.97;5058224;28;20226;-65
2022/03/30 10:00:05;;;;;;;23.13;14.93;;;;;;;11.10;100.00;96653.38;5065330;28;20218;-65
2022/03/30 10:02:34;;;;;;;21.10;14.77;;;;;;;11.13;100.00;96650.44;5054354;28;20247;-65
2022/03/30 10:05:01;;;;;;;21.97;14.33;;;;;;;11.11;100.00;96652.38;5063764;28;20248;-65
2022/03/30 10:07:30;;;;;;;22.43;14.73;;;;;;;11.16;100.00;96650.16;5066147;28;20218;-66
2022/03/30 10:09:58;;;;;;;22.47;14.17;;;;;;;11.16;100.00;96645.69;5065847;28;20245;-65
2022/03/30 10:12:26;;;;;;;18.67;12.87;;;;;;;11.17;100.00;96646.50;5062577;28;20215;-67
2022/03/30 10:14:54;;;;;;;18.20;11.20;;;;;;;11.18;100.00;96642.91;5062684;28;20223;-65
2022/03/30 10:17:22;;;;;;;18.53;11.27;;;;;;;11.23;100.00;96635.34;5052876;28;20211;-65
2022/03/30 10:19:49;;;;;;;15.10;9.87;;;;;;;11.23;100.00;96641.50;5063922;28;20235;-65
2022/03/30 10:22:31;;;;;;;14.87;8.57;;;;;;;11.23;100.00;96630.91;5062994;28;20297;-65
2022/03/30 10:25:13;;;;;;;19.13;9.73;;;;;;;11.26;100.00;96638.53;5051376;28;20724;-65
2022/03/30 10:27:48;;;;;;;18.70;8.40;;;;;;;11.22;100.00;96634.53;5069220;28;20595;-65
2022/03/30 10:30:15;;;;;;;13.30;7.23;;;;;;;11.22;100.00;96626.59;5066066;28;20231;-64
2022/03/30 10:32:41;;;;;;;12.07;7.80;;;;;;;11.21;100.00;96626.75;5048815;28;20227;-66
2022/03/30 10:35:11;;;;;;;11.03;7.37;;;;;;;11.23;100.00;96630.06;5069493;28;20223;-65
2022/03/30 10:37:40;;;;;;;10.73;7.07;;;;;;;11.29;100.00;96624.19;5068016;28;20670;-64
2022/03/30 10:40:17;;;;;;;11.93;7.10;;;;;;;11.35;100.00;96618.31;5066143;28;20259;-65
2022/03/30 10:43:04;;;;;;;12.80;7.47;;;;;;;11.45;100.00;96619.97;5069418;28;20712;-65
2022/03/30 10:45:56;;;;;;;14.53;7.77;;;;;;;11.52;100.00;96607.78;5066087;28;20216;-64
2022/03/30 10:48:24;;;;;;;13.23;7.07;;;;;;;11.56;100.00;96611.78;5069049;28;20221;-64
2022/03/30 10:50:54;;;;;;;14.23;7.30;;;;;;;11.60;100.00;96617.66;5069384;28;20214;-65
2022/03/30 10:53:43;;;;;;;10.10;7.20;;;;;;;11.61;100.00;96608.75;5068017;28;20714;-65
2022/03/30 10:56:36;;;;;;;11.40;6.87;;;;;;;11.64;100.00;96608.44;5068351;28;20223;-65
2022/03/30 10:59:10;;;;;;;14.07;6.97;;;;;;;11.67;100.00;96608.16;5069136;28;20216;-65
2022/03/30 11:01:41;;;;;;;10.43;6.43;;;;;;;11.72;100.00;96603.22;5060680;28;20243;-65
2022/03/30 11:04:16;;;;;;;11.83;7.00;;;;;;;11.75;100.00;96606.41;5052452;28;20322;-64
2022/03/30 11:06:45;;;;;;;10.43;6.50;;;;;;;11.80;100.00;96598.03;5050956;28;20253;-65
2022/03/30 11:09:22;;;;;;;10.83;6.90;;;;;;;11.85;100.00;96601.03;5059058;28;20239;-64
2022/03/30 11:11:58;;;;;;;11.10;7.53;;;;;;;11.88;100.00;96592.81;5052989;28;20299;-65
2022/03/30 11:14:31;;;;;;;11.00;7.00;;;;;;;11.93;100.00;96587.91;5049572;28;20212;-65
2022/03/30 11:17:00;;;;;;;12.93;7.80;;;;;;;11.90;100.00;96588.19;5049393;28;20294;-65
2022/03/30 11:19:31;;;;;;;12.50;6.90;;;;;;;11.84;100.00;96588.78;5044223;28;20221;-65
2022/03/30 11:22:12;;;;;;;11.17;7.03;;;;;;;11.77;100.00;96593.88;5056347;28;20211;-65
2022/03/30 11:24:41;;;;;;;9.97;6.70;;;;;;;11.64;100.00;96584.63;5049511;28;20239;-65
2022/03/30 11:27:20;;;;;;;10.50;7.23;;;;;;;11.48;100.00;96587.06;5045386;28;20252;-66